Time;durP1;ratioP1;P1;durP2;ratioP2;P2;SDS_P1;SDS_P2;PMS_P1;PMS_P2;Temp;Humidity;BMP_temperature;BMP_pressure;BME280_temperature;BME280_humidity;BME280_pressure;Samples;Min_cycle;Max_cycle;Signal;HPM_P1;HPM_P2
2022/12/07 00:00:42;;;;;;;29.58;20.25;;;;;;;;;;5040691;22;20066;-67
2022/12/07 00:03:08;;;;;;;28.00;20.15;;;;;;;;;;5029441;28;20389;-68
2022/12/07 00:05:34;;;;;;;24.50;17.20;;;;;;;;;;5045516;28;20035;-66
2022/12/07 00:08:00;;;;;;;29.20;19.92;;;;;;;;;;5030446;28;20406;-68
2022/12/07 00:10:26;;;;;;;27.55;19.88;;;;;;;;;;5030470;28;20021;-67
2022/12/07 00:12:52;;;;;;;27.15;20.15;;;;;;;;;;5030259;28;20100;-67
2022/12/07 00:15:18;;;;;;;27.40;19.38;;;;;;;;;;5029936;28;20025;-68
2022/12/07 00:17:44;;;;;;;26.67;19.23;;;;;;;;;;5030717;28;20486;-67
2022/12/07 00:20:10;;;;;;;29.52;20.95;;;;;;;;;;5029644;28;20096;-67
2022/12/07 00:22:36;;;;;;;28.05;21.20;;;;;;;;;;5030917;28;20030;-66
2022/12/07 00:25:03;;;;;;;28.08;19.85;;;;;;;;;;5030841;28;20095;-65
2022/12/07 00:27:29;;;;;;;27.95;19.77;;;;;;;;;;5030198;28;20025;-66
2022/12/07 00:29:55;;;;;;;28.15;19.50;;;;;;;;;;5030092;28;20059;-65
2022/12/07 00:32:21;;;;;;;27.23;19.55;;;;;;;;;;5030908;28;20018;-66
2022/12/07 00:34:47;;;;;;;25.85;17.83;;;;;;;;;;5030726;28;20088;-66
2022/12/07 00:37:13;;;;;;;28.52;20.13;;;;;;;;;;5029489;28;20052;-66
2022/12/07 00:39:39;;;;;;;26.02;17.83;;;;;;;;;;5030594;28;20096;-64
2022/12/07 00:42:05;;;;;;;26.60;18.48;;;;;;;;;;5029362;28;20110;-65
2022/12/07 00:44:31;;;;;;;26.23;18.45;;;;;;;;;;5029117;28;20025;-67
2022/12/07 00:46:57;;;;;;;24.40;17.92;;;;;;;;;;5030462;28;20124;-66
2022/12/07 00:49:23;;;;;;;27.95;19.70;;;;;;;;;;5030415;28;20108;-66
2022/12/07 00:51:50;;;;;;;25.63;16.55;;;;;;;;;;5030480;28;20021;-66
2022/12/07 00:54:16;;;;;;;28.00;18.38;;;;;;;;;;5028890;28;20030;-66
2022/12/07 00:56:42;;;;;;;23.48;18.83;;;;;;;;;;5029005;28;20029;-67
2022/12/07 00:59:13;;;;;;;28.48;18.88;;;;;;;;;;5029716;28;20025;-65
2022/12/07 01:01:39;;;;;;;25.02;18.10;;;;;;;;;;5028993;28;20056;-66
2022/12/07 01:04:05;;;;;;;24.98;17.73;;;;;;;;;;5030172;28;20425;-65
2022/12/07 01:06:31;;;;;;;28.38;18.55;;;;;;;;;;5030025;28;20053;-63
2022/12/07 01:08:57;;;;;;;23.95;15.23;;;;;;;;;;5030304;28;20097;-64
2022/12/07 01:11:24;;;;;;;24.65;17.83;;;;;;;;;;5028748;28;20026;-67
2022/12/07 01:13:51;;;;;;;25.67;17.05;;;;;;;;;;5029427;28;20493;-66
2022/12/07 01:16:18;;;;;;;24.08;15.27;;;;;;;;;;5028956;28;20508;-65
2022/12/07 01:18:46;;;;;;;25.10;17.40;;;;;;;;;;5028825;28;20133;-67
2022/12/07 01:21:22;;;;;;;25.40;16.95;;;;;;;;;;5030004;28;20025;-67
2022/12/07 01:23:49;;;;;;;29.08;17.05;;;;;;;;;;5029300;28;20029;-65
2022/12/07 01:26:16;;;;;;;25.17;17.02;;;;;;;;;;5030883;28;20080;-66
2022/12/07 01:28:42;;;;;;;24.67;16.70;;;;;;;;;;5029451;28;20030;-65
2022/12/07 01:31:11;;;;;;;24.42;15.77;;;;;;;;;;5029467;28;20030;-64
2022/12/07 01:33:37;;;;;;;;;;;;;;;;;;5029069;28;20032;-65
2022/12/07 01:36:03;;;;;;;21.95;15.55;;;;;;;;;;5030119;28;20362;-65
2022/12/07 01:38:30;;;;;;;25.67;16.05;;;;;;;;;;5030256;28;20057;-66
2022/12/07 01:40:57;;;;;;;25.75;16.20;;;;;;;;;;5029914;28;20053;-67
2022/12/07 01:43:24;;;;;;;26.70;19.13;;;;;;;;;;5028599;28;20082;-67
2022/12/07 01:45:50;;;;;;;28.08;17.08;;;;;;;;;;5030015;28;20029;-67
2022/12/07 01:48:18;;;;;;;26.90;16.83;;;;;;;;;;5029949;28;20121;-67
2022/12/07 01:50:46;;;;;;;25.30;17.75;;;;;;;;;;5028780;28;20505;-67
2022/12/07 01:53:13;;;;;;;27.35;17.65;;;;;;;;;;5029732;28;20081;-66
2022/12/07 01:55:40;;;;;;;28.48;18.40;;;;;;;;;;5030412;28;20074;-66
2022/12/07 01:58:07;;;;;;;29.42;20.88;;;;;;;;;;5033159;28;20116;-65
2022/12/07 02:00:33;;;;;;;26.67;17.02;;;;;;;;;;5031561;28;20087;-63
2022/12/07 02:03:05;;;;;;;26.40;18.02;;;;;;;;;;5029798;28;20071;-64
2022/12/07 02:05:32;;;;;;;32.50;21.02;;;;;;;;;;5030054;28;20087;-67
2022/12/07 02:07:59;;;;;;;28.17;19.05;;;;;;;;;;5029883;28;20391;-66
2022/12/07 02:10:29;;;;;;;28.02;17.48;;;;;;;;;;5029941;28;20025;-64
2022/12/07 02:12:56;;;;;;;28.98;17.80;;;;;;;;;;5029649;28;20014;-62
2022/12/07 02:15:24;;;;;;;36.63;20.67;;;;;;;;;;5029611;28;20029;-65
2022/12/07 02:17:53;;;;;;;30.75;20.02;;;;;;;;;;5029850;28;20393;-66
2022/12/07 02:20:35;;;;;;;30.55;19.55;;;;;;;;;;5030804;28;20069;-66
2022/12/07 02:23:13;;;;;;;30.00;19.02;;;;;;;;;;5029532;28;20386;-65
2022/12/07 02:25:39;;;;;;;;;;;;;;;;;;5034530;28;20036;-65
2022/12/07 02:28:07;;;;;;;28.25;20.63;;;;;;;;;;5033635;28;19913;-65
2022/12/07 02:30:35;;;;;;;30.77;18.85;;;;;;;;;;5033338;28;20028;-65
2022/12/07 02:33:07;;;;;;;27.10;18.55;;;;;;;;;;5031942;28;20508;-64
2022/12/07 02:35:35;;;;;;;28.67;18.67;;;;;;;;;;5033163;28;20032;-66
2022/12/07 02:38:01;;;;;;;;;;;;;;;;;;5032302;28;20030;-65
2022/12/07 02:40:30;;;;;;;29.38;18.35;;;;;;;;;;5033220;28;19905;-66
2022/12/07 02:42:59;;;;;;;28.52;18.73;;;;;;;;;;5031744;28;20033;-65
2022/12/07 02:45:28;;;;;;;28.55;19.90;;;;;;;;;;5031660;28;20029;-65
2022/12/07 02:47:54;;;;;;;;;;;;;;;;;;5032002;28;20520;-65
2022/12/07 02:50:21;;;;;;;31.10;19.92;;;;;;;;;;5031452;28;19905;-65
2022/12/07 02:52:47;;;;;;;30.60;20.00;;;;;;;;;;5031522;28;20397;-64
2022/12/07 02:55:13;;;;;;;29.23;18.98;;;;;;;;;;5032692;28;20029;-66
2022/12/07 02:57:45;;;;;;;33.42;20.27;;;;;;;;;;5032572;28;20479;-67
2022/12/07 03:00:19;;;;;;;32.42;20.55;;;;;;;;;;5031179;28;20060;-67
2022/12/07 03:02:45;;;;;;;31.63;20.42;;;;;;;;;;5032454;28;20110;-67
2022/12/07 03:05:21;;;;;;;30.75;19.23;;;;;;;;;;5032232;28;20548;-67
2022/12/07 03:08:06;;;;;;;28.52;18.85;;;;;;;;;;5032350;28;20061;-67
2022/12/07 03:10:32;;;;;;;35.20;19.75;;;;;;;;;;5031025;28;20048;-67
2022/12/07 03:13:03;;;;;;;33.60;19.95;;;;;;;;;;5032171;28;20490;-67
2022/12/07 03:15:36;;;;;;;31.23;19.20;;;;;;;;;;5031032;28;20024;-65
2022/12/07 03:18:03;;;;;;;35.17;20.48;;;;;;;;;;5032188;28;20038;-66
2022/12/07 03:20:30;;;;;;;29.55;18.35;;;;;;;;;;5032116;28;20493;-65
2022/12/07 03:22:57;;;;;;;41.60;20.85;;;;;;;;;;5031903;28;20083;-68
2022/12/07 03:25:23;;;;;;;30.98;19.75;;;;;;;;;;5031955;28;20021;-65
2022/12/07 03:27:57;;;;;;;31.55;20.65;;;;;;;;;;5031997;28;20108;-68
2022/12/07 03:30:26;;;;;;;38.95;20.23;;;;;;;;;;5031842;28;20049;-66
2022/12/07 03:32:58;;;;;;;35.40;21.20;;;;;;;;;;5031835;28;20026;-65
2022/12/07 03:35:45;;;;;;;35.00;21.13;;;;;;;;;;5031151;28;20053;-65
2022/12/07 03:38:11;;;;;;;32.47;22.30;;;;;;;;;;5032003;28;20096;-67
2022/12/07 03:40:44;;;;;;;32.58;21.27;;;;;;;;;;5031638;28;20511;-68
2022/12/07 03:43:10;;;;;;;35.65;22.42;;;;;;;;;;5030176;28;20069;-66
2022/12/07 03:45:44;;;;;;;34.33;21.02;;;;;;;;;;5031573;28;20057;-67
2022/12/07 03:48:29;;;;;;;38.10;22.58;;;;;;;;;;5031574;28;20025;-67
2022/12/07 03:51:01;;;;;;;35.83;22.50;;;;;;;;;;5031264;28;20107;-67
2022/12/07 03:53:39;;;;;;;33.50;21.52;;;;;;;;;;5031153;28;20017;-67
2022/12/07 03:56:06;;;;;;;35.03;22.17;;;;;;;;;;5031263;28;20033;-65
2022/12/07 03:58:32;;;;;;;35.75;22.33;;;;;;;;;;5029914;28;20498;-67
2022/12/07 04:00:58;;;;;;;35.67;24.08;;;;;;;;;;5030960;28;20068;-66
2022/12/07 04:03:24;;;;;;;33.50;22.60;;;;;;;;;;5029797;28;20021;-67
2022/12/07 04:05:50;;;;;;;36.10;22.58;;;;;;;;;;5031100;28;20413;-66
2022/12/07 04:08:16;;;;;;;33.30;22.70;;;;;;;;;;5031127;28;20057;-67
2022/12/07 04:10:42;;;;;;;35.67;22.20;;;;;;;;;;5029768;28;20497;-68
2022/12/07 04:13:08;;;;;;;36.00;23.42;;;;;;;;;;5030862;28;20051;-68
2022/12/07 04:15:34;;;;;;;35.25;24.38;;;;;;;;;;5031094;28;20402;-67
2022/12/07 04:18:00;;;;;;;34.67;22.83;;;;;;;;;;5029447;28;20028;-69
2022/12/07 04:20:26;;;;;;;34.75;23.55;;;;;;;;;;5030946;28;20501;-67
2022/12/07 04:22:52;;;;;;;39.28;21.95;;;;;;;;;;5030980;28;20105;-65
2022/12/07 04:25:18;;;;;;;32.75;20.02;;;;;;;;;;5029905;28;20061;-66
2022/12/07 04:27:44;;;;;;;33.10;20.08;;;;;;;;;;5031943;28;20134;-65
2022/12/07 04:30:10;;;;;;;34.67;21.30;;;;;;;;;;5032903;28;20057;-65
2022/12/07 04:32:36;;;;;;;30.85;20.58;;;;;;;;;;5032162;28;20026;-65
2022/12/07 04:35:03;;;;;;;33.33;21.88;;;;;;;;;;5030555;28;20489;-64
2022/12/07 04:37:29;;;;;;;35.65;22.02;;;;;;;;;;5029256;28;20061;-67
2022/12/07 04:39:55;;;;;;;34.00;21.52;;;;;;;;;;5030233;28;20056;-66
2022/12/07 04:42:21;;;;;;;32.85;19.88;;;;;;;;;;5030378;28;20417;-66
2022/12/07 04:44:47;;;;;;;37.17;22.20;;;;;;;;;;5030232;28;20108;-67
2022/12/07 04:47:13;;;;;;;30.75;21.00;;;;;;;;;;5028084;28;20030;-68
2022/12/07 04:49:39;;;;;;;33.78;22.98;;;;;;;;;;5029049;28;20033;-67
2022/12/07 04:52:05;;;;;;;33.17;21.52;;;;;;;;;;5030358;28;20073;-68
2022/12/07 04:54:31;;;;;;;34.60;22.13;;;;;;;;;;5029843;28;20032;-66
2022/12/07 04:56:57;;;;;;;29.70;20.55;;;;;;;;;;5029127;28;20025;-68
2022/12/07 04:59:23;;;;;;;34.80;23.08;;;;;;;;;;5029969;28;20060;-67
2022/12/07 05:01:49;;;;;;;33.08;20.40;;;;;;;;;;5030286;28;20033;-66
2022/12/07 05:04:15;;;;;;;31.63;20.95;;;;;;;;;;5029821;28;20500;-68
2022/12/07 05:06:42;;;;;;;32.15;19.10;;;;;;;;;;5029967;28;20026;-68
2022/12/07 05:09:08;;;;;;;31.85;18.92;;;;;;;;;;5029812;28;20091;-66
2022/12/07 05:11:40;;;;;;;32.85;19.13;;;;;;;;;;5029998;28;20413;-66
2022/12/07 05:14:06;;;;;;;28.92;17.70;;;;;;;;;;5029757;28;20390;-67
2022/12/07 05:16:32;;;;;;;26.02;17.42;;;;;;;;;;5029876;28;20026;-68
2022/12/07 05:18:58;;;;;;;29.15;17.48;;;;;;;;;;5029758;28;20449;-67
2022/12/07 05:21:24;;;;;;;38.03;17.05;;;;;;;;;;5029579;28;20033;-67
2022/12/07 05:23:50;;;;;;;33.10;16.60;;;;;;;;;;5029557;28;20447;-66
2022/12/07 05:26:16;;;;;;;21.80;13.57;;;;;;;;;;5030095;28;20040;-67
2022/12/07 05:28:42;;;;;;;26.98;15.02;;;;;;;;;;5029814;28;20120;-66
2022/12/07 05:31:08;;;;;;;29.38;16.30;;;;;;;;;;5030116;28;20102;-67
2022/12/07 05:33:34;;;;;;;26.23;14.23;;;;;;;;;;5029609;28;20136;-68
2022/12/07 05:36:05;;;;;;;25.10;14.93;;;;;;;;;;5029913;28;20028;-67
2022/12/07 05:38:32;;;;;;;21.55;13.82;;;;;;;;;;5029721;28;20045;-67
2022/12/07 05:41:06;;;;;;;24.63;12.90;;;;;;;;;;5029661;28;20025;-67
2022/12/07 05:43:33;;;;;;;25.60;13.80;;;;;;;;;;5029341;28;20143;-70
2022/12/07 05:45:59;;;;;;;29.35;15.77;;;;;;;;;;5029387;28;20025;-68
2022/12/07 05:48:26;;;;;;;21.23;13.43;;;;;;;;;;5029587;28;20055;-68
2022/12/07 05:50:52;;;;;;;25.38;15.02;;;;;;;;;;5029447;28;20447;-68
2022/12/07 05:53:18;;;;;;;25.60;13.77;;;;;;;;;;5029260;28;20028;-68
2022/12/07 05:55:44;;;;;;;22.60;13.85;;;;;;;;;;5029695;28;20022;-67
2022/12/07 06:00:55;;;;;;;20.83;12.73;;;;;;;;;;5043697;23;20053;-65
2022/12/07 06:03:21;;;;;;;24.13;12.82;;;;;;;;;;5041077;28;20060;-64
2022/12/07 06:05:48;;;;;;;20.67;12.95;;;;;;;;;;5034212;28;20021;-66
2022/12/07 06:08:15;;;;;;;22.30;13.52;;;;;;;;;;5033746;28;20033;-66
2022/12/07 06:10:41;;;;;;;18.70;12.00;;;;;;;;;;5033894;28;20433;-67
2022/12/07 06:13:07;;;;;;;23.50;14.73;;;;;;;;;;5034836;28;20029;-65
2022/12/07 06:15:33;;;;;;;23.58;13.15;;;;;;;;;;5034114;28;20033;-66
2022/12/07 06:17:59;;;;;;;21.90;12.38;;;;;;;;;;5033575;28;20124;-66
2022/12/07 06:20:25;;;;;;;21.77;13.25;;;;;;;;;;5033516;28;20159;-64
2022/12/07 06:22:51;;;;;;;22.45;13.90;;;;;;;;;;5035219;28;20044;-67
2022/12/07 06:25:17;;;;;;;23.98;13.70;;;;;;;;;;5033531;28;20025;-66
2022/12/07 06:27:43;;;;;;;21.83;13.63;;;;;;;;;;5027567;28;20073;-69
2022/12/07 06:30:09;;;;;;;22.67;12.80;;;;;;;;;;5013262;28;20169;-65
2022/12/07 06:32:37;;;;;;;23.20;12.95;;;;;;;;;;5017155;28;20033;-60
2022/12/07 06:35:03;;;;;;;21.75;13.95;;;;;;;;;;5016606;28;20087;-60
2022/12/07 06:37:29;;;;;;;23.52;13.85;;;;;;;;;;5013136;28;20067;-64
2022/12/07 06:39:56;;;;;;;20.48;13.63;;;;;;;;;;5013536;28;20030;-64
2022/12/07 06:42:22;;;;;;;21.13;13.95;;;;;;;;;;5014975;28;20367;-65
2022/12/07 06:44:47;;;;;;;25.45;14.65;;;;;;;;;;5014665;28;20022;-64
2022/12/07 06:47:14;;;;;;;21.23;13.60;;;;;;;;;;5014512;28;20105;-64
2022/12/07 06:49:40;;;;;;;23.85;15.35;;;;;;;;;;5015301;28;20022;-61
2022/12/07 06:52:06;;;;;;;23.33;15.35;;;;;;;;;;5016145;28;20022;-65
2022/12/07 06:54:32;;;;;;;23.80;15.85;;;;;;;;;;5014411;28;20457;-62
2022/12/07 06:56:58;;;;;;;23.30;14.55;;;;;;;;;;5016281;28;20501;-63
2022/12/07 06:59:24;;;;;;;21.23;15.13;;;;;;;;;;5014644;28;20475;-65
2022/12/07 07:01:51;;;;;;;26.23;16.40;;;;;;;;;;5015462;28;20465;-65
2022/12/07 07:04:17;;;;;;;23.45;16.80;;;;;;;;;;5014424;28;20026;-63
2022/12/07 07:06:43;;;;;;;24.08;15.93;;;;;;;;;;5014174;28;20147;-66
2022/12/07 07:09:09;;;;;;;24.25;16.17;;;;;;;;;;5013506;28;20581;-63
2022/12/07 07:11:35;;;;;;;25.75;15.25;;;;;;;;;;5013479;28;20382;-62
2022/12/07 07:14:02;;;;;;;23.70;15.70;;;;;;;;;;5013094;28;20073;-66
2022/12/07 07:16:30;;;;;;;30.67;16.83;;;;;;;;;;5017947;28;20033;-66
2022/12/07 07:18:56;;;;;;;23.80;15.75;;;;;;;;;;5014732;28;20021;-66
2022/12/07 07:21:22;;;;;;;25.25;15.52;;;;;;;;;;5014897;28;20053;-65
2022/12/07 07:23:48;;;;;;;24.88;16.70;;;;;;;;;;5014448;28;20363;-65
2022/12/07 07:26:14;;;;;;;23.08;15.32;;;;;;;;;;5014213;28;20032;-66
2022/12/07 07:28:40;;;;;;;29.70;16.40;;;;;;;;;;5014300;28;20037;-64
2022/12/07 07:31:06;;;;;;;22.40;14.95;;;;;;;;;;5013892;28;20164;-65
2022/12/07 07:33:32;;;;;;;26.88;15.65;;;;;;;;;;5013184;28;20270;-65
2022/12/07 07:35:58;;;;;;;22.38;14.32;;;;;;;;;;5012186;28;20030;-64
2022/12/07 07:38:24;;;;;;;23.65;15.02;;;;;;;;;;5013973;28;20025;-63
2022/12/07 07:40:50;;;;;;;27.80;17.05;;;;;;;;;;5014417;28;20382;-63
2022/12/07 07:43:16;;;;;;;25.73;15.50;;;;;;;;;;5013302;28;20030;-64
2022/12/07 07:45:42;;;;;;;20.60;14.50;;;;;;;;;;5013046;28;20036;-65
2022/12/07 07:48:08;;;;;;;22.60;15.35;;;;;;;;;;5012361;28;20457;-66
2022/12/07 07:50:34;;;;;;;22.90;14.95;;;;;;;;;;5014301;28;20110;-66
2022/12/07 07:53:00;;;;;;;23.67;15.70;;;;;;;;;;5013446;28;20044;-65
2022/12/07 07:55:26;;;;;;;27.00;17.63;;;;;;;;;;5013241;28;20026;-66
2022/12/07 07:57:52;;;;;;;25.85;17.67;;;;;;;;;;5013003;28;20556;-65
2022/12/07 08:00:18;;;;;;;23.38;16.95;;;;;;;;;;5012039;28;20052;-64
2022/12/07 08:02:45;;;;;;;25.95;18.02;;;;;;;;;;5012295;28;20030;-66
2022/12/07 08:05:12;;;;;;;23.27;17.85;;;;;;;;;;5011389;28;20022;-64
2022/12/07 08:07:38;;;;;;;33.05;20.35;;;;;;;;;;5012708;28;20026;-66
2022/12/07 08:10:05;;;;;;;25.25;18.40;;;;;;;;;;5012937;28;20026;-65
2022/12/07 08:12:31;;;;;;;25.15;18.20;;;;;;;;;;5013056;28;20597;-65
2022/12/07 08:14:57;;;;;;;24.02;18.65;;;;;;;;;;5012755;28;20022;-66
2022/12/07 08:17:24;;;;;;;22.95;19.05;;;;;;;;;;5013131;28;20028;-65
2022/12/07 08:19:50;;;;;;;24.67;18.55;;;;;;;;;;5011686;28;20022;-64
2022/12/07 08:22:15;;;;;;;28.70;19.45;;;;;;;;;;5011537;28;20036;-66
2022/12/07 08:24:42;;;;;;;23.83;19.30;;;;;;;;;;5013991;28;20022;-65
2022/12/07 08:27:08;;;;;;;24.60;19.27;;;;;;;;;;5014348;28;20032;-67
2022/12/07 08:29:34;;;;;;;30.33;21.70;;;;;;;;;;5011542;28;20486;-67
2022/12/07 08:32:01;;;;;;;24.20;19.77;;;;;;;;;;5013173;28;20029;-67
2022/12/07 08:34:27;;;;;;;23.10;19.67;;;;;;;;;;5013555;28;20046;-67
2022/12/07 08:36:53;;;;;;;24.77;19.33;;;;;;;;;;5011692;28;20018;-67
2022/12/07 08:39:19;;;;;;;25.75;20.65;;;;;;;;;;5012484;28;20030;-67
2022/12/07 08:41:46;;;;;;;29.42;19.95;;;;;;;;;;5013099;28;20018;-67
2022/12/07 08:44:12;;;;;;;27.52;20.38;;;;;;;;;;5011585;28;20021;-67
2022/12/07 08:46:44;;;;;;;31.35;20.45;;;;;;;;;;5012889;28;20072;-68
2022/12/07 08:49:10;;;;;;;23.98;17.00;;;;;;;;;;5012671;28;20033;-67
2022/12/07 08:51:36;;;;;;;25.80;16.80;;;;;;;;;;5012818;28;20386;-67
2022/12/07 08:54:04;;;;;;;25.42;17.45;;;;;;;;;;5012401;28;20032;-67
2022/12/07 08:56:30;;;;;;;23.65;18.10;;;;;;;;;;5013160;28;20445;-66
2022/12/07 08:58:57;;;;;;;26.92;17.17;;;;;;;;;;5009361;28;20125;-67
2022/12/07 09:01:24;;;;;;;22.65;16.33;;;;;;;;;;5011591;28;20057;-68
2022/12/07 09:03:50;;;;;;;24.90;15.30;;;;;;;;;;5011697;28;20566;-68
2022/12/07 09:06:16;;;;;;;27.85;16.23;;;;;;;;;;5011605;28;20033;-66
2022/12/07 09:08:43;;;;;;;22.35;14.63;;;;;;;;;;5007811;28;20038;-67
2022/12/07 09:11:10;;;;;;;19.63;14.20;;;;;;;;;;5011573;28;20025;-67
2022/12/07 09:13:36;;;;;;;23.35;13.98;;;;;;;;;;5010443;28;20080;-67
2022/12/07 09:16:02;;;;;;;22.60;14.70;;;;;;;;;;5011715;28;20032;-67
2022/12/07 09:18:29;;;;;;;22.70;13.77;;;;;;;;;;5010098;28;20037;-70
2022/12/07 09:20:55;;;;;;;23.08;15.88;;;;;;;;;;5011708;28;20439;-65
2022/12/07 09:23:21;;;;;;;22.27;14.38;;;;;;;;;;5010597;28;20034;-65
2022/12/07 09:25:47;;;;;;;21.42;13.85;;;;;;;;;;5012176;28;20088;-65
2022/12/07 09:28:13;;;;;;;20.42;13.38;;;;;;;;;;5010195;28;20030;-65
2022/12/07 09:30:39;;;;;;;23.65;13.23;;;;;;;;;;5010370;28;20022;-65
2022/12/07 09:33:06;;;;;;;22.08;13.90;;;;;;;;;;5012022;28;20061;-63
2022/12/07 09:35:32;;;;;;;17.60;12.63;;;;;;;;;;5016133;28;20018;-64
2022/12/07 09:37:58;;;;;;;22.23;12.88;;;;;;;;;;5015871;28;20026;-66
2022/12/07 09:40:24;;;;;;;21.33;14.00;;;;;;;;;;5015594;28;20037;-65
2022/12/07 09:42:51;;;;;;;23.27;13.82;;;;;;;;;;5014924;28;20148;-66
2022/12/07 09:45:19;;;;;;;19.40;12.43;;;;;;;;;;5014908;28;20054;-68
2022/12/07 09:47:46;;;;;;;21.02;14.25;;;;;;;;;;5014910;28;20096;-67
2022/12/07 09:50:16;;;;;;;21.33;13.80;;;;;;;;;;5013537;28;20026;-66
2022/12/07 09:52:45;;;;;;;21.77;14.65;;;;;;;;;;5015082;28;20509;-66
2022/12/07 09:55:16;;;;;;;21.55;13.70;;;;;;;;;;5013286;28;20049;-65
2022/12/07 09:57:42;;;;;;;24.13;15.93;;;;;;;;;;5013788;28;20034;-68
2022/12/07 10:00:13;;;;;;;18.20;13.65;;;;;;;;;;5014618;28;20030;-63
2022/12/07 10:02:45;;;;;;;21.20;12.60;;;;;;;;;;5014499;28;20060;-63
2022/12/07 10:05:32;;;;;;;25.67;13.88;;;;;;;;;;5014602;28;20056;-65
2022/12/07 10:07:58;;;;;;;20.05;12.65;;;;;;;;;;5006276;28;20521;-65
2022/12/07 10:10:27;;;;;;;22.02;13.57;;;;;;;;;;5014580;28;20064;-67
2022/12/07 10:12:59;;;;;;;20.08;12.95;;;;;;;;;;5013143;28;20053;-66
2022/12/07 10:15:41;;;;;;;19.15;12.73;;;;;;;;;;5014623;28;20030;-67
2022/12/07 10:18:17;;;;;;;23.13;13.32;;;;;;;;;;5014512;28;20068;-67
2022/12/07 10:20:43;;;;;;;20.45;13.00;;;;;;;;;;5014417;28;20167;-67
2022/12/07 10:23:14;;;;;;;19.70;12.77;;;;;;;;;;5013028;28;20453;-65
2022/12/07 10:25:42;;;;;;;20.13;13.20;;;;;;;;;;5014392;28;20026;-66
2022/12/07 10:28:08;;;;;;;22.83;14.55;;;;;;;;;;5014311;28;20034;-65
2022/12/07 10:30:46;;;;;;;20.10;12.40;;;;;;;;;;5013970;28;20144;-65
2022/12/07 10:33:29;;;;;;;19.55;12.30;;;;;;;;;;5012925;28;20026;-66
2022/12/07 10:35:55;;;;;;;20.95;13.05;;;;;;;;;;5014488;28;20037;-66
2022/12/07 10:38:21;;;;;;;19.92;13.02;;;;;;;;;;5014442;28;20502;-65
2022/12/07 10:40:47;;;;;;;23.42;13.80;;;;;;;;;;5012803;28;20041;-65
2022/12/07 10:43:18;;;;;;;23.17;12.55;;;;;;;;;;5014297;28;20026;-65
2022/12/07 10:45:59;;;;;;;20.40;11.60;;;;;;;;;;5013920;28;20030;-66
2022/12/07 10:48:25;;;;;;;19.33;10.60;;;;;;;;;;5012674;28;20026;-65
2022/12/07 10:50:51;;;;;;;25.42;10.48;;;;;;;;;;5013924;28;20181;-63
2022/12/07 10:53:17;;;;;;;17.50;9.00;;;;;;;;;;5013626;28;20022;-66
2022/12/07 10:56:03;;;;;;;19.33;9.30;;;;;;;;;;5012422;28;20033;-64
2022/12/07 10:58:35;;;;;;;18.95;8.82;;;;;;;;;;5013605;28;20404;-67
2022/12/07 11:01:09;;;;;;;19.17;8.70;;;;;;;;;;5013627;28;20402;-66
2022/12/07 11:03:50;;;;;;;17.42;8.65;;;;;;;;;;5013439;28;20034;-66
2022/12/07 11:06:22;;;;;;;19.75;9.18;;;;;;;;;;5013644;28;20627;-64
2022/12/07 11:08:59;;;;;;;15.68;7.97;;;;;;;;;;5012019;28;20029;-66
2022/12/07 11:11:33;;;;;;;17.77;8.95;;;;;;;;;;5013428;28;20093;-68
2022/12/07 11:14:06;;;;;;;19.65;8.43;;;;;;;;;;5011702;28;20026;-65
2022/12/07 11:16:42;;;;;;;19.65;8.80;;;;;;;;;;5013617;28;20049;-63
2022/12/07 11:19:23;;;;;;;17.17;7.70;;;;;;;;;;5012268;28;20022;-65
2022/12/07 11:21:49;;;;;;;18.08;9.40;;;;;;;;;;5011847;28;20033;-61
2022/12/07 11:24:19;;;;;;;16.08;7.68;;;;;;;;;;5013315;28;20028;-65
2022/12/07 11:27:06;;;;;;;16.70;8.30;;;;;;;;;;5013600;28;20045;-65
2022/12/07 11:29:35;;;;;;;15.52;8.05;;;;;;;;;;5012214;28;20034;-64
2022/12/07 11:32:01;;;;;;;15.98;7.80;;;;;;;;;;5012309;28;20024;-66
2022/12/07 11:34:35;;;;;;;18.73;8.32;;;;;;;;;;5012075;28;20300;-65
2022/12/07 11:37:04;;;;;;;21.65;9.30;;;;;;;;;;5013744;28;20434;-65
2022/12/07 11:39:35;;;;;;;19.60;7.35;;;;;;;;;;5013651;28;20049;-66
2022/12/07 11:42:04;;;;;;;18.45;7.97;;;;;;;;;;5013053;28;20076;-65
2022/12/07 11:44:42;;;;;;;14.77;7.28;;;;;;;;;;5013253;28;20021;-63
2022/12/07 11:47:18;;;;;;;16.40;7.93;;;;;;;;;;5012997;28;20030;-65
2022/12/07 11:49:51;;;;;;;17.42;8.30;;;;;;;;;;5013062;28;20424;-65
2022/12/07 11:52:38;;;;;;;15.80;7.53;;;;;;;;;;5013465;28;20024;-64
2022/12/07 11:55:20;;;;;;;18.45;8.00;;;;;;;;;;5002224;28;20379;-65
2022/12/07 11:57:49;;;;;;;23.58;8.30;;;;;;;;;;5011927;28;20037;-65
2022/12/07 12:00:17;;;;;;;18.67;8.82;;;;;;;;;;5027773;23;20081;-68
2022/12/07 12:02:53;;;;;;;17.35;7.50;;;;;;;;;;5027586;28;20037;-67
2022/12/07 12:05:21;;;;;;;17.92;8.68;;;;;;;;;;5008007;28;20053;-69
2022/12/07 12:07:49;;;;;;;19.05;9.27;;;;;;;;;;4994380;28;20041;-69
2022/12/07 12:10:15;;;;;;;14.77;7.53;;;;;;;;;;5010391;28;20041;-68
2022/12/07 12:12:48;;;;;;;18.88;8.20;;;;;;;;;;5011548;28;20038;-69
2022/12/07 12:15:29;;;;;;;19.23;7.75;;;;;;;;;;5012297;28;20022;-68
2022/12/07 12:18:22;;;;;;;16.80;7.53;;;;;;;;;;5011689;28;20505;-66
2022/12/07 12:20:48;;;;;;;16.75;8.18;;;;;;;;;;5012630;28;20034;-68
2022/12/07 12:23:21;;;;;;;16.30;8.70;;;;;;;;;;5011543;28;20071;-69
2022/12/07 12:25:49;;;;;;;18.60;7.38;;;;;;;;;;5012790;28;20021;-68
2022/12/07 12:28:50;;;;;;;18.05;9.35;;;;;;;;;;5011940;28;20026;-68
2022/12/07 12:31:57;;;;;;;15.77;7.80;;;;;;;;;;4996557;28;20070;-68
2022/12/07 12:34:31;;;;;;;18.40;8.27;;;;;;;;;;4990558;28;20506;-68
2022/12/07 12:37:03;;;;;;;16.05;8.20;;;;;;;;;;4991301;28;20050;-68
2022/12/07 12:39:29;;;;;;;15.70;7.40;;;;;;;;;;4992931;28;20018;-66
2022/12/07 12:44:22;;;;;;;20.38;8.35;;;;;;;;;;4992546;28;20034;-68
2022/12/07 12:46:52;;;;;;;17.75;7.70;;;;;;;;;;4992776;28;20404;-69
2022/12/07 12:49:21;;;;;;;15.10;8.18;;;;;;;;;;4991140;28;20034;-65
2022/12/07 12:51:51;;;;;;;16.63;8.43;;;;;;;;;;4992227;28;20499;-68
2022/12/07 12:54:21;;;;;;;17.00;7.95;;;;;;;;;;4992141;28;20027;-66
2022/12/07 12:56:49;;;;;;;18.10;8.70;;;;;;;;;;4993009;28;20438;-68
2022/12/07 12:59:24;;;;;;;20.35;8.85;;;;;;;;;;4993706;28;20395;-68
2022/12/07 13:04:59;;;;;;;15.48;7.72;;;;;;;;;;4994127;28;20026;-68
2022/12/07 13:07:44;;;;;;;17.65;8.20;;;;;;;;;;4992948;28;20090;-69
2022/12/07 13:10:19;;;;;;;16.60;7.30;;;;;;;;;;4992336;28;20030;-67
2022/12/07 13:12:55;;;;;;;15.57;7.50;;;;;;;;;;4633522;28;10001442;-68
2022/12/07 13:15:40;;;;;;;16.23;7.50;;;;;;;;;;4981235;28;20031;-69
2022/12/07 13:18:09;;;;;;;16.08;7.05;;;;;;;;;;4985536;28;20076;-69
2022/12/07 13:24:10;;;;;;;17.33;7.88;;;;;;;;;;4969652;28;20041;-69
2022/12/07 13:26:38;;;;;;;16.45;8.38;;;;;;;;;;4969430;28;20090;-68
2022/12/07 13:29:13;;;;;;;20.17;9.00;;;;;;;;;;4971082;28;20031;-68
2022/12/07 13:31:40;;;;;;;15.80;7.95;;;;;;;;;;4987825;28;20509;-70
2022/12/07 13:34:25;;;;;;;15.27;7.57;;;;;;;;;;4989024;28;20081;-68
2022/12/07 13:36:53;;;;;;;15.40;8.55;;;;;;;;;;4989378;28;20031;-69
2022/12/07 13:39:19;;;;;;;15.98;7.32;;;;;;;;;;4988239;28;20050;-69
2022/12/07 13:41:50;;;;;;;17.88;7.32;;;;;;;;;;4989133;28;20031;-69
2022/12/07 13:44:35;;;;;;;17.70;8.13;;;;;;;;;;4988144;28;20027;-67
2022/12/07 13:47:23;;;;;;;19.85;8.00;;;;;;;;;;4980696;28;20106;-67
2022/12/07 13:49:51;;;;;;;15.30;7.60;;;;;;;;;;4999765;28;20101;-69
2022/12/07 13:52:23;;;;;;;17.38;7.63;;;;;;;;;;4992640;28;20045;-69
2022/12/07 13:55:02;;;;;;;18.80;7.60;;;;;;;;;;5003580;28;20034;-67
2022/12/07 13:57:30;;;;;;;18.05;7.82;;;;;;;;;;4994043;28;20044;-70
2022/12/07 13:59:57;;;;;;;21.20;8.57;;;;;;;;;;4995529;28;20078;-68
2022/12/07 14:02:31;;;;;;;15.40;7.43;;;;;;;;;;5000145;28;20498;-67
2022/12/07 14:08:22;;;;;;;16.42;8.02;;;;;;;;;;4991207;28;20068;-67
2022/12/07 14:10:47;;;;;;;14.95;7.22;;;;;;;;;;4990777;28;20046;-68
2022/12/07 14:13:33;;;;;;;15.45;7.65;;;;;;;;;;4990714;28;20065;-66
2022/12/07 14:16:00;;;;;;;16.27;7.75;;;;;;;;;;4989992;28;20018;-68
2022/12/07 14:18:49;;;;;;;16.48;7.55;;;;;;;;;;4991774;28;20644;-66
2022/12/07 14:21:15;;;;;;;17.77;8.43;;;;;;;;;;4994804;28;20058;-68
2022/12/07 14:23:41;;;;;;;14.93;7.55;;;;;;;;;;4994756;28;20022;-69
2022/12/07 14:26:07;;;;;;;19.38;9.57;;;;;;;;;;4994685;28;20081;-69
2022/12/07 14:28:34;;;;;;;22.75;8.68;;;;;;;;;;4994758;28;20048;-69
2022/12/07 14:31:01;;;;;;;17.92;7.95;;;;;;;;;;4994049;28;20076;-68
2022/12/07 14:33:28;;;;;;;17.80;7.90;;;;;;;;;;4994528;28;20022;-68
2022/12/07 14:35:57;;;;;;;17.42;8.13;;;;;;;;;;4994191;28;20486;-67
2022/12/07 14:38:24;;;;;;;16.80;7.55;;;;;;;;;;4994041;28;20084;-69
2022/12/07 14:40:51;;;;;;;15.40;7.18;;;;;;;;;;4994005;28;20027;-68
2022/12/07 14:43:18;;;;;;;17.23;8.00;;;;;;;;;;4994041;28;20030;-68
2022/12/07 14:45:44;;;;;;;16.95;7.60;;;;;;;;;;4994647;28;20030;-68